sensor_id;sensor_type;location;lat;lon;timestamp;P1;durP1;ratioP1;P2;durP2;ratioP2
19861;SDS011;10093;48.148;8.542;2024-02-21T00:00:17;12.88;;;6.93;;
19861;SDS011;10093;48.148;8.542;2024-02-21T00:02:43;17.50;;;9.30;;
19861;SDS011;10093;48.148;8.542;2024-02-21T00:05:08;18.83;;;8.93;;
19861;SDS011;10093;48.148;8.542;2024-02-21T00:07:34;20.00;;;8.52;;
19861;SDS011;10093;48.148;8.542;2024-02-21T00:09:59;16.70;;;6.95;;
19861;SDS011;10093;48.148;8.542;2024-02-21T00:12:25;15.77;;;7.20;;
19861;SDS011;10093;48.148;8.542;2024-02-21T00:14:51;23.35;;;7.22;;
19861;SDS011;10093;48.148;8.542;2024-02-21T00:17:16;18.17;;;7.88;;
19861;SDS011;10093;48.148;8.542;2024-02-21T00:19:42;16.33;;;7.35;;
19861;SDS011;10093;48.148;8.542;2024-02-21T00:22:07;13.95;;;7.10;;
19861;SDS011;10093;48.148;8.542;2024-02-21T00:24:33;16.48;;;6.55;;
19861;SDS011;10093;48.148;8.542;2024-02-21T00:26:59;13.75;;;5.78;;
19861;SDS011;10093;48.148;8.542;2024-02-21T00:29:24;13.65;;;6.25;;
19861;SDS011;10093;48.148;8.542;2024-02-21T00:31:50;19.35;;;6.65;;
19861;SDS011;10093;48.148;8.542;2024-02-21T00:34:16;12.50;;;5.78;;
19861;SDS011;10093;48.148;8.542;2024-02-21T00:36:41;17.05;;;7.10;;
19861;SDS011;10093;48.148;8.542;2024-02-21T00:39:07;38.33;;;16.90;;
19861;SDS011;10093;48.148;8.542;2024-02-21T00:41:33;19.10;;;9.05;;
19861;SDS011;10093;48.148;8.542;2024-02-21T00:43:58;41.35;;;21.33;;
19861;SDS011;10093;48.148;8.542;2024-02-21T00:46:24;26.75;;;11.45;;
19861;SDS011;10093;48.148;8.542;2024-02-21T00:48:49;22.77;;;11.07;;
19861;SDS011;10093;48.148;8.542;2024-02-21T00:51:15;30.15;;;13.85;;
19861;SDS011;10093;48.148;8.542;2024-02-21T00:53:41;27.63;;;14.85;;
19861;SDS011;10093;48.148;8.542;2024-02-21T00:56:07;26.27;;;13.98;;
19861;SDS011;10093;48.148;8.542;2024-02-21T00:58:33;19.50;;;8.80;;
19861;SDS011;10093;48.148;8.542;2024-02-21T01:01:00;19.17;;;7.60;;
19861;SDS011;10093;48.148;8.542;2024-02-21T01:03:26;18.05;;;7.53;;
19861;SDS011;10093;48.148;8.542;2024-02-21T01:05:51;20.02;;;7.32;;
19861;SDS011;10093;48.148;8.542;2024-02-21T01:08:17;17.25;;;6.82;;
19861;SDS011;10093;48.148;8.542;2024-02-21T01:10:42;19.10;;;6.90;;
19861;SDS011;10093;48.148;8.542;2024-02-21T01:13:08;18.35;;;7.35;;
19861;SDS011;10093;48.148;8.542;2024-02-21T01:15:34;14.90;;;7.00;;
19861;SDS011;10093;48.148;8.542;2024-02-21T01:18:00;14.77;;;6.60;;
19861;SDS011;10093;48.148;8.542;2024-02-21T01:20:26;14.07;;;6.13;;
19861;SDS011;10093;48.148;8.542;2024-02-21T01:22:52;14.60;;;6.72;;
19861;SDS011;10093;48.148;8.542;2024-02-21T01:25:17;16.13;;;6.60;;
19861;SDS011;10093;48.148;8.542;2024-02-21T01:27:43;12.82;;;5.95;;
19861;SDS011;10093;48.148;8.542;2024-02-21T01:30:08;13.32;;;6.57;;
19861;SDS011;10093;48.148;8.542;2024-02-21T01:32:35;18.30;;;6.18;;
19861;SDS011;10093;48.148;8.542;2024-02-21T01:35:01;16.00;;;6.80;;
19861;SDS011;10093;48.148;8.542;2024-02-21T01:37:27;15.88;;;6.50;;
19861;SDS011;10093;48.148;8.542;2024-02-21T01:39:52;15.20;;;6.15;;
19861;SDS011;10093;48.148;8.542;2024-02-21T01:42:18;16.98;;;6.60;;
19861;SDS011;10093;48.148;8.542;2024-02-21T01:44:44;13.20;;;5.95;;
19861;SDS011;10093;48.148;8.542;2024-02-21T01:47:10;14.25;;;6.05;;
19861;SDS011;10093;48.148;8.542;2024-02-21T01:49:38;14.68;;;5.63;;
19861;SDS011;10093;48.148;8.542;2024-02-21T01:52:05;15.05;;;6.07;;
19861;SDS011;10093;48.148;8.542;2024-02-21T01:54:31;14.48;;;6.20;;
19861;SDS011;10093;48.148;8.542;2024-02-21T01:56:57;15.80;;;6.20;;
19861;SDS011;10093;48.148;8.542;2024-02-21T01:59:23;13.02;;;5.38;;
19861;SDS011;10093;48.148;8.542;2024-02-21T02:01:49;13.15;;;5.35;;
19861;SDS011;10093;48.148;8.542;2024-02-21T02:04:16;15.32;;;5.78;;
19861;SDS011;10093;48.148;8.542;2024-02-21T02:06:42;21.13;;;6.28;;
19861;SDS011;10093;48.148;8.542;2024-02-21T02:09:08;9.52;;;5.32;;
19861;SDS011;10093;48.148;8.542;2024-02-21T02:11:33;14.20;;;5.88;;
19861;SDS011;10093;48.148;8.542;2024-02-21T02:14:00;13.38;;;5.95;;
19861;SDS011;10093;48.148;8.542;2024-02-21T02:16:26;12.10;;;5.97;;
19861;SDS011;10093;48.148;8.542;2024-02-21T02:18:51;14.98;;;5.93;;
19861;SDS011;10093;48.148;8.542;2024-02-21T02:21:29;13.60;;;5.53;;
19861;SDS011;10093;48.148;8.542;2024-02-21T02:23:57;15.70;;;6.30;;
19861;SDS011;10093;48.148;8.542;2024-02-21T02:26:23;17.92;;;6.18;;
19861;SDS011;10093;48.148;8.542;2024-02-21T02:28:49;13.13;;;6.35;;
19861;SDS011;10093;48.148;8.542;2024-02-21T02:31:15;12.73;;;5.60;;
19861;SDS011;10093;48.148;8.542;2024-02-21T02:33:42;14.20;;;5.65;;
19861;SDS011;10093;48.148;8.542;2024-02-21T02:36:09;10.93;;;5.70;;
19861;SDS011;10093;48.148;8.542;2024-02-21T02:38:35;12.98;;;5.68;;
19861;SDS011;10093;48.148;8.542;2024-02-21T02:41:00;13.82;;;6.35;;
19861;SDS011;10093;48.148;8.542;2024-02-21T02:43:26;18.38;;;6.93;;
19861;SDS011;10093;48.148;8.542;2024-02-21T02:45:51;17.95;;;7.35;;
19861;SDS011;10093;48.148;8.542;2024-02-21T02:48:17;15.73;;;7.75;;
19861;SDS011;10093;48.148;8.542;2024-02-21T02:50:44;18.15;;;7.78;;
19861;SDS011;10093;48.148;8.542;2024-02-21T02:53:10;20.40;;;7.32;;
19861;SDS011;10093;48.148;8.542;2024-02-21T02:55:36;14.98;;;7.60;;
19861;SDS011;10093;48.148;8.542;2024-02-21T02:58:02;21.75;;;7.82;;
19861;SDS011;10093;48.148;8.542;2024-02-21T03:00:28;18.23;;;6.78;;
19861;SDS011;10093;48.148;8.542;2024-02-21T03:02:53;19.27;;;6.47;;
19861;SDS011;10093;48.148;8.542;2024-02-21T03:05:20;19.48;;;5.90;;
19861;SDS011;10093;48.148;8.542;2024-02-21T03:07:47;18.45;;;6.38;;
19861;SDS011;10093;48.148;8.542;2024-02-21T03:10:14;26.05;;;6.93;;
19861;SDS011;10093;48.148;8.542;2024-02-21T03:12:41;15.43;;;6.00;;
19861;SDS011;10093;48.148;8.542;2024-02-21T03:15:07;16.25;;;6.63;;
19861;SDS011;10093;48.148;8.542;2024-02-21T03:17:33;16.33;;;5.90;;
19861;SDS011;10093;48.148;8.542;2024-02-21T03:20:02;11.98;;;4.88;;
19861;SDS011;10093;48.148;8.542;2024-02-21T03:22:33;18.98;;;6.47;;
19861;SDS011;10093;48.148;8.542;2024-02-21T03:24:59;15.98;;;5.97;;
19861;SDS011;10093;48.148;8.542;2024-02-21T03:27:25;14.15;;;5.70;;
19861;SDS011;10093;48.148;8.542;2024-02-21T03:29:50;13.48;;;5.50;;
19861;SDS011;10093;48.148;8.542;2024-02-21T03:32:16;18.33;;;5.70;;
19861;SDS011;10093;48.148;8.542;2024-02-21T03:34:42;14.27;;;5.05;;
19861;SDS011;10093;48.148;8.542;2024-02-21T03:37:07;15.23;;;5.03;;
19861;SDS011;10093;48.148;8.542;2024-02-21T03:39:33;11.82;;;4.53;;
19861;SDS011;10093;48.148;8.542;2024-02-21T03:41:59;12.48;;;4.97;;
19861;SDS011;10093;48.148;8.542;2024-02-21T03:44:33;12.55;;;4.30;;
19861;SDS011;10093;48.148;8.542;2024-02-21T03:46:59;18.33;;;5.93;;
19861;SDS011;10093;48.148;8.542;2024-02-21T03:49:25;20.45;;;4.85;;
19861;SDS011;10093;48.148;8.542;2024-02-21T03:51:51;15.85;;;4.68;;
19861;SDS011;10093;48.148;8.542;2024-02-21T03:54:17;13.75;;;4.53;;
19861;SDS011;10093;48.148;8.542;2024-02-21T03:56:43;11.18;;;3.80;;
19861;SDS011;10093;48.148;8.542;2024-02-21T03:59:09;10.20;;;4.18;;
19861;SDS011;10093;48.148;8.542;2024-02-21T04:01:34;11.75;;;4.50;;
19861;SDS011;10093;48.148;8.542;2024-02-21T04:04:00;12.68;;;4.25;;
19861;SDS011;10093;48.148;8.542;2024-02-21T04:06:26;11.00;;;3.97;;
19861;SDS011;10093;48.148;8.542;2024-02-21T04:08:52;5.97;;;3.70;;
19861;SDS011;10093;48.148;8.542;2024-02-21T04:11:18;11.98;;;4.10;;
19861;SDS011;10093;48.148;8.542;2024-02-21T04:13:44;8.85;;;4.10;;
19861;SDS011;10093;48.148;8.542;2024-02-21T04:16:10;14.18;;;4.07;;
19861;SDS011;10093;48.148;8.542;2024-02-21T04:18:36;12.88;;;4.75;;
19861;SDS011;10093;48.148;8.542;2024-02-21T04:21:01;18.75;;;5.32;;
19861;SDS011;10093;48.148;8.542;2024-02-21T04:23:27;15.27;;;5.00;;
19861;SDS011;10093;48.148;8.542;2024-02-21T04:25:53;17.88;;;6.53;;
19861;SDS011;10093;48.148;8.542;2024-02-21T04:28:18;13.98;;;5.22;;
19861;SDS011;10093;48.148;8.542;2024-02-21T04:30:44;16.10;;;5.63;;
19861;SDS011;10093;48.148;8.542;2024-02-21T04:33:09;17.70;;;5.82;;
19861;SDS011;10093;48.148;8.542;2024-02-21T04:35:38;18.60;;;5.25;;
19861;SDS011;10093;48.148;8.542;2024-02-21T04:38:04;18.73;;;5.93;;
19861;SDS011;10093;48.148;8.542;2024-02-21T04:40:30;28.67;;;7.03;;
19861;SDS011;10093;48.148;8.542;2024-02-21T04:42:55;21.17;;;8.00;;
19861;SDS011;10093;48.148;8.542;2024-02-21T04:45:22;23.13;;;7.45;;
19861;SDS011;10093;48.148;8.542;2024-02-21T04:47:47;25.60;;;6.85;;
19861;SDS011;10093;48.148;8.542;2024-02-21T04:50:22;25.83;;;6.95;;
19861;SDS011;10093;48.148;8.542;2024-02-21T04:52:47;22.80;;;7.80;;
19861;SDS011;10093;48.148;8.542;2024-02-21T04:55:13;21.30;;;6.30;;
19861;SDS011;10093;48.148;8.542;2024-02-21T04:57:39;23.00;;;6.88;;
19861;SDS011;10093;48.148;8.542;2024-02-21T05:00:05;20.17;;;6.43;;
19861;SDS011;10093;48.148;8.542;2024-02-21T05:02:31;22.80;;;7.18;;
19861;SDS011;10093;48.148;8.542;2024-02-21T05:04:57;13.85;;;5.47;;
19861;SDS011;10093;48.148;8.542;2024-02-21T05:07:22;16.35;;;5.95;;
19861;SDS011;10093;48.148;8.542;2024-02-21T05:09:48;10.95;;;4.68;;
19861;SDS011;10093;48.148;8.542;2024-02-21T05:12:14;13.20;;;4.70;;
19861;SDS011;10093;48.148;8.542;2024-02-21T05:14:39;16.33;;;4.05;;
19861;SDS011;10093;48.148;8.542;2024-02-21T05:17:05;12.52;;;4.53;;
19861;SDS011;10093;48.148;8.542;2024-02-21T05:19:30;18.42;;;4.32;;
19861;SDS011;10093;48.148;8.542;2024-02-21T05:21:56;14.90;;;4.90;;
19861;SDS011;10093;48.148;8.542;2024-02-21T05:24:22;11.25;;;4.00;;
19861;SDS011;10093;48.148;8.542;2024-02-21T05:26:47;17.45;;;4.60;;
19861;SDS011;10093;48.148;8.542;2024-02-21T05:29:13;16.48;;;5.47;;
19861;SDS011;10093;48.148;8.542;2024-02-21T05:34:16;15.32;;;5.45;;
19861;SDS011;10093;48.148;8.542;2024-02-21T05:36:42;15.20;;;5.10;;
19861;SDS011;10093;48.148;8.542;2024-02-21T05:39:08;14.07;;;4.78;;
19861;SDS011;10093;48.148;8.542;2024-02-21T05:41:34;14.40;;;5.07;;
19861;SDS011;10093;48.148;8.542;2024-02-21T05:43:59;14.82;;;5.13;;
19861;SDS011;10093;48.148;8.542;2024-02-21T05:46:25;13.82;;;4.95;;
19861;SDS011;10093;48.148;8.542;2024-02-21T05:48:50;9.77;;;3.97;;
19861;SDS011;10093;48.148;8.542;2024-02-21T05:51:16;16.38;;;4.15;;
19861;SDS011;10093;48.148;8.542;2024-02-21T05:53:44;11.63;;;3.42;;
19861;SDS011;10093;48.148;8.542;2024-02-21T05:56:23;16.55;;;4.72;;
19861;SDS011;10093;48.148;8.542;2024-02-21T05:58:48;14.57;;;4.82;;
19861;SDS011;10093;48.148;8.542;2024-02-21T06:01:14;14.02;;;4.32;;
19861;SDS011;10093;48.148;8.542;2024-02-21T06:03:40;14.23;;;5.13;;
19861;SDS011;10093;48.148;8.542;2024-02-21T06:06:05;13.50;;;5.30;;
19861;SDS011;10093;48.148;8.542;2024-02-21T06:08:31;20.60;;;6.45;;
19861;SDS011;10093;48.148;8.542;2024-02-21T06:10:57;14.15;;;5.22;;
19861;SDS011;10093;48.148;8.542;2024-02-21T06:13:25;23.85;;;5.93;;
19861;SDS011;10093;48.148;8.542;2024-02-21T06:15:51;15.48;;;5.82;;
19861;SDS011;10093;48.148;8.542;2024-02-21T06:18:17;17.92;;;6.05;;
19861;SDS011;10093;48.148;8.542;2024-02-21T06:20:43;18.55;;;6.80;;
19861;SDS011;10093;48.148;8.542;2024-02-21T06:23:09;15.90;;;6.82;;
19861;SDS011;10093;48.148;8.542;2024-02-21T06:25:36;23.58;;;7.90;;
19861;SDS011;10093;48.148;8.542;2024-02-21T06:28:02;17.63;;;6.80;;
19861;SDS011;10093;48.148;8.542;2024-02-21T06:30:27;24.35;;;6.78;;
19861;SDS011;10093;48.148;8.542;2024-02-21T06:32:53;17.38;;;6.28;;
19861;SDS011;10093;48.148;8.542;2024-02-21T06:35:21;19.17;;;5.97;;
19861;SDS011;10093;48.148;8.542;2024-02-21T06:37:46;14.88;;;5.63;;
19861;SDS011;10093;48.148;8.542;2024-02-21T06:40:16;18.35;;;5.70;;
19861;SDS011;10093;48.148;8.542;2024-02-21T06:42:42;16.20;;;5.80;;
19861;SDS011;10093;48.148;8.542;2024-02-21T06:45:07;14.80;;;5.80;;
19861;SDS011;10093;48.148;8.542;2024-02-21T06:47:33;18.17;;;6.93;;
19861;SDS011;10093;48.148;8.542;2024-02-21T06:49:59;18.63;;;5.70;;
19861;SDS011;10093;48.148;8.542;2024-02-21T06:52:24;18.05;;;6.35;;
19861;SDS011;10093;48.148;8.542;2024-02-21T06:54:50;17.50;;;6.00;;
19861;SDS011;10093;48.148;8.542;2024-02-21T06:57:16;13.88;;;5.68;;
19861;SDS011;10093;48.148;8.542;2024-02-21T06:59:41;20.75;;;6.20;;
19861;SDS011;10093;48.148;8.542;2024-02-21T07:02:07;19.92;;;7.90;;
19861;SDS011;10093;48.148;8.542;2024-02-21T07:04:33;23.90;;;8.63;;
19861;SDS011;10093;48.148;8.542;2024-02-21T07:06:59;30.95;;;11.45;;
19861;SDS011;10093;48.148;8.542;2024-02-21T07:09:24;23.23;;;10.15;;
19861;SDS011;10093;48.148;8.542;2024-02-21T07:11:50;24.52;;;8.73;;
19861;SDS011;10093;48.148;8.542;2024-02-21T07:14:16;32.78;;;12.38;;
19861;SDS011;10093;48.148;8.542;2024-02-21T07:16:43;21.20;;;8.82;;
19861;SDS011;10093;48.148;8.542;2024-02-21T07:19:08;22.98;;;10.13;;
19861;SDS011;10093;48.148;8.542;2024-02-21T07:21:34;13.02;;;7.15;;
19861;SDS011;10093;48.148;8.542;2024-02-21T07:24:02;16.63;;;7.45;;
19861;SDS011;10093;48.148;8.542;2024-02-21T07:26:29;13.07;;;5.28;;
19861;SDS011;10093;48.148;8.542;2024-02-21T07:28:56;12.38;;;5.68;;
19861;SDS011;10093;48.148;8.542;2024-02-21T07:31:21;11.50;;;3.70;;
19861;SDS011;10093;48.148;8.542;2024-02-21T07:33:47;6.85;;;3.63;;
19861;SDS011;10093;48.148;8.542;2024-02-21T07:36:14;6.22;;;2.80;;
19861;SDS011;10093;48.148;8.542;2024-02-21T07:38:40;8.40;;;2.42;;
19861;SDS011;10093;48.148;8.542;2024-02-21T07:41:06;5.90;;;1.45;;
19861;SDS011;10093;48.148;8.542;2024-02-21T07:43:32;6.43;;;2.53;;
19861;SDS011;10093;48.148;8.542;2024-02-21T07:45:58;5.75;;;2.05;;
19861;SDS011;10093;48.148;8.542;2024-02-21T07:48:23;4.65;;;2.20;;
19861;SDS011;10093;48.148;8.542;2024-02-21T07:50:52;9.23;;;2.95;;
19861;SDS011;10093;48.148;8.542;2024-02-21T07:53:18;3.70;;;2.13;;
19861;SDS011;10093;48.148;8.542;2024-02-21T07:55:44;7.90;;;3.00;;
19861;SDS011;10093;48.148;8.542;2024-02-21T07:58:10;6.50;;;2.75;;
19861;SDS011;10093;48.148;8.542;2024-02-21T08:00:36;6.07;;;2.50;;
19861;SDS011;10093;48.148;8.542;2024-02-21T08:03:01;8.40;;;3.20;;
19861;SDS011;10093;48.148;8.542;2024-02-21T08:05:27;10.52;;;3.10;;
19861;SDS011;10093;48.148;8.542;2024-02-21T08:07:55;7.60;;;2.63;;
19861;SDS011;10093;48.148;8.542;2024-02-21T08:10:20;7.13;;;2.88;;
19861;SDS011;10093;48.148;8.542;2024-02-21T08:12:46;8.55;;;3.05;;
19861;SDS011;10093;48.148;8.542;2024-02-21T08:15:11;12.20;;;3.42;;
19861;SDS011;10093;48.148;8.542;2024-02-21T08:17:37;9.52;;;3.55;;
19861;SDS011;10093;48.148;8.542;2024-02-21T08:20:06;9.82;;;3.42;;
19861;SDS011;10093;48.148;8.542;2024-02-21T08:22:32;8.20;;;3.08;;
19861;SDS011;10093;48.148;8.542;2024-02-21T08:24:57;9.10;;;2.55;;
19861;SDS011;10093;48.148;8.542;2024-02-21T08:27:23;6.78;;;2.97;;
19861;SDS011;10093;48.148;8.542;2024-02-21T08:29:49;7.20;;;2.80;;
19861;SDS011;10093;48.148;8.542;2024-02-21T08:32:14;9.95;;;3.03;;
19861;SDS011;10093;48.148;8.542;2024-02-21T08:34:40;7.18;;;2.50;;
19861;SDS011;10093;48.148;8.542;2024-02-21T08:37:05;9.90;;;2.72;;
19861;SDS011;10093;48.148;8.542;2024-02-21T08:39:31;8.93;;;2.92;;
19861;SDS011;10093;48.148;8.542;2024-02-21T08:41:57;8.95;;;2.60;;
19861;SDS011;10093;48.148;8.542;2024-02-21T08:44:23;7.85;;;2.55;;
19861;SDS011;10093;48.148;8.542;2024-02-21T08:46:52;8.18;;;3.00;;
19861;SDS011;10093;48.148;8.542;2024-02-21T08:49:17;6.47;;;2.88;;
19861;SDS011;10093;48.148;8.542;2024-02-21T08:51:43;9.25;;;3.10;;
19861;SDS011;10093;48.148;8.542;2024-02-21T08:54:09;9.00;;;3.05;;
19861;SDS011;10093;48.148;8.542;2024-02-21T08:56:34;11.05;;;2.90;;
19861;SDS011;10093;48.148;8.542;2024-02-21T08:59:00;10.15;;;2.67;;
19861;SDS011;10093;48.148;8.542;2024-02-21T09:01:26;8.68;;;2.03;;
19861;SDS011;10093;48.148;8.542;2024-02-21T09:03:52;7.18;;;2.17;;
19861;SDS011;10093;48.148;8.542;2024-02-21T09:06:18;11.20;;;2.08;;
19861;SDS011;10093;48.148;8.542;2024-02-21T09:08:45;5.78;;;1.90;;
19861;SDS011;10093;48.148;8.542;2024-02-21T09:11:11;5.45;;;1.98;;
19861;SDS011;10093;48.148;8.542;2024-02-21T09:13:36;5.88;;;2.00;;
19861;SDS011;10093;48.148;8.542;2024-02-21T09:16:02;6.53;;;1.77;;
19861;SDS011;10093;48.148;8.542;2024-02-21T09:18:28;7.82;;;2.25;;
19861;SDS011;10093;48.148;8.542;2024-02-21T09:20:55;13.00;;;2.40;;
19861;SDS011;10093;48.148;8.542;2024-02-21T09:23:20;5.97;;;2.80;;
19861;SDS011;10093;48.148;8.542;2024-02-21T09:25:49;7.30;;;2.25;;
19861;SDS011;10093;48.148;8.542;2024-02-21T09:28:15;6.78;;;2.33;;
19861;SDS011;10093;48.148;8.542;2024-02-21T09:30:40;5.82;;;2.20;;
19861;SDS011;10093;48.148;8.542;2024-02-21T09:33:06;7.60;;;2.25;;
19861;SDS011;10093;48.148;8.542;2024-02-21T09:35:31;9.60;;;2.60;;
19861;SDS011;10093;48.148;8.542;2024-02-21T09:37:58;6.95;;;2.40;;
19861;SDS011;10093;48.148;8.542;2024-02-21T09:40:24;7.60;;;2.40;;
19861;SDS011;10093;48.148;8.542;2024-02-21T09:42:50;12.13;;;2.72;;
19861;SDS011;10093;48.148;8.542;2024-02-21T09:45:32;8.15;;;2.28;;
19861;SDS011;10093;48.148;8.542;2024-02-21T09:50:49;5.82;;;2.03;;
19861;SDS011;10093;48.148;8.542;2024-02-21T09:53:16;5.25;;;2.03;;
19861;SDS011;10093;48.148;8.542;2024-02-21T09:55:44;6.85;;;2.10;;
19861;SDS011;10093;48.148;8.542;2024-02-21T09:58:11;6.38;;;1.98;;
19861;SDS011;10093;48.148;8.542;2024-02-21T10:00:38;4.68;;;1.85;;
19861;SDS011;10093;48.148;8.542;2024-02-21T10:03:03;3.38;;;1.88;;
19861;SDS011;10093;48.148;8.542;2024-02-21T10:05:35;6.68;;;2.17;;
19861;SDS011;10093;48.148;8.542;2024-02-21T10:08:02;7.25;;;2.40;;
19861;SDS011;10093;48.148;8.542;2024-02-21T10:10:29;3.70;;;2.00;;
19861;SDS011;10093;48.148;8.542;2024-02-21T10:12:55;4.03;;;2.00;;
19861;SDS011;10093;48.148;8.542;2024-02-21T10:15:21;5.38;;;2.15;;
19861;SDS011;10093;48.148;8.542;2024-02-21T10:17:48;5.40;;;2.00;;
19861;SDS011;10093;48.148;8.542;2024-02-21T10:20:14;6.28;;;2.10;;
19861;SDS011;10093;48.148;8.542;2024-02-21T10:22:41;4.50;;;1.88;;
19861;SDS011;10093;48.148;8.542;2024-02-21T10:25:10;3.20;;;1.95;;
19861;SDS011;10093;48.148;8.542;2024-02-21T10:27:37;4.75;;;1.50;;
19861;SDS011;10093;48.148;8.542;2024-02-21T10:30:13;3.70;;;1.52;;
19861;SDS011;10093;48.148;8.542;2024-02-21T10:35:34;3.10;;;1.58;;
19861;SDS011;10093;48.148;8.542;2024-02-21T10:38:00;2.45;;;1.30;;
19861;SDS011;10093;48.148;8.542;2024-02-21T10:40:27;3.85;;;1.10;;
19861;SDS011;10093;48.148;8.542;2024-02-21T10:42:59;3.53;;;1.20;;
19861;SDS011;10093;48.148;8.542;2024-02-21T10:45:29;4.65;;;1.20;;
19861;SDS011;10093;48.148;8.542;2024-02-21T10:48:02;5.72;;;1.52;;
19861;SDS011;10093;48.148;8.542;2024-02-21T10:50:57;2.30;;;1.40;;
19861;SDS011;10093;48.148;8.542;2024-02-21T10:53:50;3.30;;;1.50;;
19861;SDS011;10093;48.148;8.542;2024-02-21T10:56:29;4.07;;;1.52;;
19861;SDS011;10093;48.148;8.542;2024-02-21T10:59:02;4.78;;;2.13;;
19861;SDS011;10093;48.148;8.542;2024-02-21T11:01:29;3.72;;;1.60;;
19861;SDS011;10093;48.148;8.542;2024-02-21T11:04:10;6.50;;;2.10;;
19861;SDS011;10093;48.148;8.542;2024-02-21T11:06:37;3.63;;;1.70;;
19861;SDS011;10093;48.148;8.542;2024-02-21T11:11:43;5.35;;;2.10;;
19861;SDS011;10093;48.148;8.542;2024-02-21T11:14:19;4.47;;;1.70;;
19861;SDS011;10093;48.148;8.542;2024-02-21T11:16:45;4.10;;;1.50;;
19861;SDS011;10093;48.148;8.542;2024-02-21T11:19:28;2.63;;;1.38;;
19861;SDS011;10093;48.148;8.542;2024-02-21T11:21:54;4.28;;;1.60;;
19861;SDS011;10093;48.148;8.542;2024-02-21T11:24:28;3.45;;;1.48;;
19861;SDS011;10093;48.148;8.542;2024-02-21T11:29:46;3.45;;;1.25;;
19861;SDS011;10093;48.148;8.542;2024-02-21T11:32:14;3.00;;;1.38;;
19861;SDS011;10093;48.148;8.542;2024-02-21T11:34:40;5.18;;;1.67;;
19861;SDS011;10093;48.148;8.542;2024-02-21T11:37:13;3.72;;;1.20;;
19861;SDS011;10093;48.148;8.542;2024-02-21T11:39:42;5.15;;;1.63;;
19861;SDS011;10093;48.148;8.542;2024-02-21T11:42:08;2.70;;;1.23;;
19861;SDS011;10093;48.148;8.542;2024-02-21T11:44:35;3.00;;;1.42;;
19861;SDS011;10093;48.148;8.542;2024-02-21T11:47:03;4.13;;;1.65;;
19861;SDS011;10093;48.148;8.542;2024-02-21T11:49:29;4.22;;;1.38;;
19861;SDS011;10093;48.148;8.542;2024-02-21T11:51:59;3.83;;;1.45;;
19861;SDS011;10093;48.148;8.542;2024-02-21T11:54:25;5.82;;;1.92;;
19861;SDS011;10093;48.148;8.542;2024-02-21T11:56:52;5.57;;;1.65;;
19861;SDS011;10093;48.148;8.542;2024-02-21T11:59:17;2.80;;;1.48;;
19861;SDS011;10093;48.148;8.542;2024-02-21T12:01:43;2.72;;;1.30;;
19861;SDS011;10093;48.148;8.542;2024-02-21T12:04:08;7.93;;;4.22;;
19861;SDS011;10093;48.148;8.542;2024-02-21T12:06:35;3.72;;;1.40;;
19861;SDS011;10093;48.148;8.542;2024-02-21T12:09:00;2.42;;;1.35;;
19861;SDS011;10093;48.148;8.542;2024-02-21T12:11:26;6.07;;;1.48;;
19861;SDS011;10093;48.148;8.542;2024-02-21T12:13:58;3.35;;;1.48;;
19861;SDS011;10093;48.148;8.542;2024-02-21T12:16:28;3.42;;;1.40;;
19861;SDS011;10093;48.148;8.542;2024-02-21T12:18:55;3.20;;;1.60;;
